createdAt,value
2023-04-10T00:00:13.332Z,82.96
2023-04-10T00:02:41.017Z,83.26
2023-04-10T00:05:09.373Z,82.84
2023-04-10T00:07:36.781Z,82.37
2023-04-10T00:10:04.486Z,82.82
2023-04-10T00:12:33.381Z,82.05
2023-04-10T00:15:00.826Z,82.07
2023-04-10T00:17:28.251Z,82.76
2023-04-10T00:19:55.785Z,82.09
2023-04-10T00:22:23.211Z,83.37
2023-04-10T00:24:50.691Z,83.11
2023-04-10T00:27:18.118Z,82.54
2023-04-10T00:29:46.877Z,82.57
2023-04-10T00:32:14.533Z,82.54
2023-04-10T00:34:42.091Z,83.43
2023-04-10T00:37:09.501Z,83.18
2023-04-10T00:39:37.139Z,84.20
2023-04-10T00:42:09.313Z,84.12
2023-04-10T00:44:37.387Z,83.92
2023-04-10T00:47:06.480Z,83.76
2023-04-10T00:49:34.857Z,84.05
2023-04-10T00:52:02.574Z,84.33
2023-04-10T00:54:31.313Z,84.28
2023-04-10T00:56:59.741Z,83.95
2023-04-10T00:59:27.236Z,83.93
2023-04-10T01:01:54.732Z,83.44
2023-04-10T01:04:26.660Z,83.80
2023-04-10T01:07:00.506Z,83.80
2023-04-10T01:09:39.591Z,82.17
2023-04-10T01:12:17.093Z,83.76
2023-04-10T01:14:53.998Z,82.04
2023-04-10T01:17:29.381Z,81.93
2023-04-10T01:20:05.459Z,81.48
2023-04-10T01:22:37.481Z,81.97
2023-04-10T01:25:20.382Z,82.01
2023-04-10T01:28:06.299Z,82.38
2023-04-10T01:30:36.449Z,82.60
2023-04-10T01:33:06.904Z,82.59
2023-04-10T01:35:35.927Z,82.57
2023-04-10T01:38:07.224Z,82.44
2023-04-10T01:40:39.596Z,81.89
2023-04-10T01:43:11.320Z,81.71
2023-04-10T01:45:43.436Z,81.85
2023-04-10T01:48:11.649Z,81.47
2023-04-10T01:50:39.537Z,81.32
2023-04-10T01:53:08.255Z,82.25
2023-04-10T01:55:38.121Z,82.14
2023-04-10T01:58:05.816Z,81.49
2023-04-10T02:00:41.253Z,81.68
2023-04-10T02:03:08.969Z,81.46
2023-04-10T02:05:47.099Z,80.94
2023-04-10T02:08:19.581Z,81.85
2023-04-10T02:10:53.014Z,81.56
2023-04-10T02:13:23.067Z,81.71
2023-04-10T02:15:53.134Z,81.36
2023-04-10T02:18:22.929Z,82.82
2023-04-10T02:20:50.697Z,83.11
2023-04-10T02:23:19.272Z,81.67
2023-04-10T02:25:46.795Z,81.98
2023-04-10T02:28:14.205Z,83.07
2023-04-10T02:30:41.666Z,83.44
2023-04-10T02:33:10.667Z,83.27
2023-04-10T02:35:38.205Z,84.19
2023-04-10T02:38:05.748Z,83.62
2023-04-10T02:40:33.420Z,83.93
2023-04-10T02:43:00.905Z,83.35
2023-04-10T02:45:28.420Z,84.01
2023-04-10T02:47:56.165Z,84.17
2023-04-10T02:50:25.037Z,84.01
2023-04-10T02:52:52.453Z,83.55
2023-04-10T02:55:20.099Z,84.67
2023-04-10T02:57:47.747Z,85.13
2023-04-10T03:00:16.179Z,83.80
2023-04-10T03:02:43.723Z,82.59
2023-04-10T03:05:11.488Z,82.70
2023-04-10T03:07:40.555Z,82.16
2023-04-10T03:10:09.251Z,83.39
2023-04-10T03:12:37.023Z,83.22
2023-04-10T03:15:05.039Z,83.83
2023-04-10T03:17:32.739Z,82.38
2023-04-10T03:20:00.296Z,83.87
2023-04-10T03:22:31.756Z,84.41
2023-04-10T03:25:01.250Z,84.74
2023-04-10T03:27:29.090Z,84.74
2023-04-10T03:29:56.528Z,85.17
2023-04-10T03:32:23.982Z,86.30
2023-04-10T03:34:51.465Z,86.08
2023-04-10T03:37:19.480Z,85.80
2023-04-10T03:39:46.881Z,84.29
2023-04-10T03:42:15.627Z,83.71
2023-04-10T03:44:43.077Z,85.22
2023-04-10T03:47:10.849Z,85.01
2023-04-10T03:49:38.424Z,85.30
2023-04-10T03:52:06.218Z,84.23
2023-04-10T03:54:33.664Z,84.14
2023-04-10T03:57:01.503Z,83.57
2023-04-10T03:59:38.241Z,84.75
2023-04-10T04:02:08.042Z,84.96
2023-04-10T04:04:35.778Z,84.42
2023-04-10T04:07:03.422Z,83.68
2023-04-10T04:09:31.122Z,85.04
2023-04-10T04:11:58.532Z,84.04
2023-04-10T04:14:25.961Z,83.60
2023-04-10T04:16:54.789Z,83.82
2023-04-10T04:19:22.329Z,85.75
2023-04-10T04:21:49.789Z,83.85
2023-04-10T04:24:17.218Z,83.25
2023-04-10T04:26:44.674Z,84.27
2023-04-10T04:29:12.112Z,83.47
2023-04-10T04:31:39.606Z,84.20
2023-04-10T04:34:08.366Z,84.26
2023-04-10T04:36:35.849Z,82.61
2023-04-10T04:39:03.246Z,81.91
2023-04-10T04:41:32.312Z,82.39
2023-04-10T04:44:01.094Z,82.34
2023-04-10T04:46:28.724Z,82.37
2023-04-10T04:48:56.208Z,81.62
2023-04-10T04:51:24.977Z,81.75
2023-04-10T04:53:52.683Z,82.35
2023-04-10T04:56:20.412Z,82.07
2023-04-10T04:58:47.842Z,82.60
2023-04-10T05:01:15.698Z,82.04
2023-04-10T05:03:43.385Z,81.49
2023-04-10T05:06:11.126Z,79.82
2023-04-10T05:08:39.865Z,79.46
2023-04-10T05:11:07.927Z,77.81
2023-04-10T05:13:35.374Z,75.75
2023-04-10T05:16:02.879Z,76.01
2023-04-10T05:18:30.595Z,75.14
2023-04-10T05:20:58.103Z,76.98
2023-04-10T05:23:25.764Z,75.98
2023-04-10T05:25:54.515Z,76.50
2023-04-10T05:28:22.741Z,75.33
2023-04-10T05:30:50.251Z,74.84
2023-04-10T05:33:17.720Z,74.21
2023-04-10T05:35:45.273Z,70.94
2023-04-10T05:38:12.780Z,71.35
2023-04-10T05:40:40.213Z,71.99
2023-04-10T05:43:09.698Z,69.52
2023-04-10T05:45:37.238Z,67.74
2023-04-10T05:48:04.981Z,65.47
2023-04-10T05:50:32.420Z,65.40
2023-04-10T05:52:59.878Z,67.14
2023-04-10T05:55:27.308Z,67.72
2023-04-10T05:57:54.751Z,67.62
2023-04-10T06:00:23.545Z,63.15
2023-04-10T06:02:51.090Z,61.52
2023-04-10T06:05:18.912Z,62.51
2023-04-10T06:07:46.461Z,65.38
2023-04-10T06:10:13.955Z,68.34
2023-04-10T06:12:41.649Z,68.53
2023-04-10T06:15:09.834Z,70.20
2023-04-10T06:17:44.476Z,68.90
2023-04-10T06:20:12.801Z,71.76
2023-04-10T06:22:40.605Z,70.54
2023-04-10T06:25:08.559Z,70.62
2023-04-10T06:27:36.493Z,73.66
2023-04-10T06:30:04.342Z,74.45
2023-04-10T06:32:32.140Z,74.12
2023-04-10T06:35:00.970Z,72.75
2023-04-10T06:37:31.189Z,72.99
2023-04-10T06:40:04.670Z,72.53
2023-04-10T06:42:35.663Z,71.67
2023-04-10T06:45:03.397Z,75.92
2023-04-10T06:47:31.606Z,75.72
2023-04-10T06:49:59.080Z,74.02
2023-04-10T06:52:27.941Z,79.45
2023-04-10T06:54:55.439Z,77.38
2023-04-10T06:57:22.885Z,75.62
2023-04-10T06:59:50.349Z,74.50
2023-04-10T07:02:17.899Z,74.75
2023-04-10T07:04:45.672Z,73.26
2023-04-10T07:07:13.433Z,72.70
2023-04-10T07:09:42.428Z,74.97
2023-04-10T07:12:09.905Z,75.56
2023-04-10T07:14:37.461Z,74.77
2023-04-10T07:17:04.922Z,75.74
2023-04-10T07:19:32.485Z,73.23
2023-04-10T07:22:00.705Z,72.90
2023-04-10T07:24:28.407Z,73.29
2023-04-10T07:26:58.123Z,74.37
2023-04-10T07:29:25.692Z,74.11
2023-04-10T07:32:01.096Z,79.55
2023-04-10T07:34:28.730Z,78.89
2023-04-10T07:36:56.130Z,78.26
2023-04-10T07:39:23.629Z,78.23
2023-04-10T07:41:51.169Z,74.47
2023-04-10T07:44:19.939Z,79.15
2023-04-10T07:46:47.528Z,72.95
2023-04-10T07:49:15.001Z,72.58
2023-04-10T07:51:42.473Z,74.01
2023-04-10T07:54:10.046Z,75.74
2023-04-10T07:56:37.637Z,72.48
2023-04-10T07:59:05.295Z,70.72
2023-04-10T08:01:34.323Z,70.47
2023-04-10T08:04:04.768Z,71.67
2023-04-10T08:06:33.351Z,71.60
2023-04-10T08:09:02.072Z,71.04
2023-04-10T08:11:31.229Z,73.17
2023-04-10T08:14:01.708Z,71.46
2023-04-10T08:16:31.363Z,70.37
2023-04-10T08:19:00.848Z,71.56
2023-04-10T08:21:30.106Z,70.99
2023-04-10T08:23:58.754Z,69.71
2023-04-10T08:26:27.623Z,70.80
2023-04-10T08:28:57.508Z,69.83
2023-04-10T08:31:27.404Z,69.80
2023-04-10T08:33:55.456Z,70.13
2023-04-10T08:36:24.980Z,69.03
2023-04-10T08:38:52.406Z,68.77
2023-04-10T08:41:20.917Z,68.93
2023-04-10T08:43:49.776Z,68.52
2023-04-10T08:46:17.449Z,68.75
2023-04-10T08:48:47.984Z,67.06
2023-04-10T08:51:20.443Z,69.33
2023-04-10T08:54:01.713Z,68.92
2023-04-10T08:56:29.297Z,67.55
2023-04-10T08:58:56.888Z,67.59
2023-04-10T09:01:24.613Z,66.89
2023-04-10T09:03:52.467Z,67.08
2023-04-10T09:06:19.967Z,66.18
2023-04-10T09:08:47.442Z,65.10
2023-04-10T09:11:16.256Z,64.74
2023-04-10T09:13:45.017Z,64.43
2023-04-10T09:16:12.864Z,63.30
2023-04-10T09:18:48.337Z,65.01
2023-04-10T09:21:17.687Z,64.79
2023-04-10T09:23:45.997Z,63.93
2023-04-10T09:26:27.083Z,62.61
2023-04-10T09:28:59.369Z,61.40
2023-04-10T09:31:34.925Z,62.78
2023-04-10T09:34:09.166Z,64.30
2023-04-10T09:36:36.932Z,65.44
2023-04-10T09:39:05.181Z,64.44
2023-04-10T09:41:34.528Z,64.69
2023-04-10T09:44:09.839Z,65.53
2023-04-10T09:46:37.323Z,63.37
2023-04-10T09:49:07.243Z,65.80
2023-04-10T09:51:36.547Z,64.83
2023-04-10T09:54:04.462Z,68.06
2023-04-10T09:56:32.743Z,68.32
2023-04-10T09:59:04.724Z,67.35
2023-04-10T10:01:35.229Z,67.09
2023-04-10T10:04:04.419Z,63.38
2023-04-10T10:06:33.109Z,63.89
2023-04-10T10:09:03.806Z,62.29
2023-04-10T10:11:34.755Z,62.50
2023-04-10T10:14:09.003Z,61.46
2023-04-10T10:16:44.335Z,64.22
2023-04-10T10:19:17.250Z,62.86
2023-04-10T10:21:45.786Z,63.19
2023-04-10T10:24:14.504Z,63.95
2023-04-10T10:26:42.766Z,61.65
2023-04-10T10:29:13.377Z,62.42
2023-04-10T10:31:41.290Z,61.50
2023-04-10T10:34:09.790Z,61.98
2023-04-10T10:36:38.342Z,61.33
2023-04-10T10:39:33.517Z,60.87
2023-04-10T10:42:07.564Z,60.79
2023-04-10T10:44:43.749Z,61.59
2023-04-10T10:47:16.642Z,62.30
2023-04-10T10:49:55.293Z,59.35
2023-04-10T10:52:38.511Z,60.63
2023-04-10T10:55:32.540Z,61.08
2023-04-10T10:58:02.025Z,60.31
2023-04-10T11:01:09.840Z,62.07
2023-04-10T11:03:38.328Z,61.32
2023-04-10T11:06:08.828Z,60.07
2023-04-10T11:08:47.197Z,60.01
2023-04-10T11:11:16.844Z,60.32
2023-04-10T11:14:17.723Z,61.70
2023-04-10T11:16:48.320Z,61.28
2023-04-10T11:19:22.436Z,60.23
2023-04-10T11:22:05.489Z,59.27
2023-04-10T11:24:58.468Z,59.92
2023-04-10T11:27:48.682Z,62.61
2023-04-10T11:30:34.290Z,61.42
2023-04-10T11:33:05.504Z,61.36
2023-04-10T11:35:33.877Z,60.85
2023-04-10T11:38:15.739Z,61.19
2023-04-10T11:41:01.502Z,59.68
2023-04-10T11:43:29.362Z,60.61
2023-04-10T11:46:04.592Z,60.39
2023-04-10T11:48:33.611Z,59.33
2023-04-10T11:51:08.520Z,59.15
2023-04-10T11:53:36.077Z,58.14
2023-04-10T11:56:03.604Z,58.43
2023-04-10T11:58:32.012Z,60.77
2023-04-10T12:01:04.093Z,58.52
2023-04-10T12:03:41.286Z,61.53
2023-04-10T12:06:11.469Z,57.72
2023-04-10T12:08:40.443Z,57.85
2023-04-10T12:11:09.459Z,59.87
2023-04-10T12:13:37.241Z,57.48
2023-04-10T12:16:06.967Z,57.19
2023-04-10T12:18:35.942Z,56.22
2023-04-10T12:21:06.851Z,56.40
2023-04-10T12:23:38.357Z,54.36
2023-04-10T12:26:14.180Z,54.50
2023-04-10T12:28:43.500Z,54.44
2023-04-10T12:31:11.200Z,54.44
2023-04-10T12:33:38.652Z,54.60
2023-04-10T12:36:20.608Z,54.82
2023-04-10T12:38:48.058Z,54.68
2023-04-10T12:41:22.577Z,54.08
2023-04-10T12:43:50.046Z,56.33
2023-04-10T12:46:25.915Z,56.42
2023-04-10T12:48:53.804Z,55.63
2023-04-10T12:51:42.482Z,54.65
2023-04-10T12:54:09.862Z,56.05
2023-04-10T12:56:42.452Z,53.69
2023-04-10T12:59:10.049Z,55.26
2023-04-10T13:01:38.786Z,52.21
2023-04-10T13:04:06.480Z,50.41
2023-04-10T13:06:43.462Z,50.30
2023-04-10T13:09:10.845Z,51.37
2023-04-10T13:11:38.328Z,51.39
2023-04-10T13:14:05.827Z,51.05
2023-04-10T13:16:33.406Z,50.41
2023-04-10T13:19:01.461Z,48.36
2023-04-10T13:21:29.051Z,49.52
2023-04-10T13:23:58.100Z,49.46
2023-04-10T13:26:25.882Z,50.21
2023-04-10T13:28:53.831Z,50.00
2023-04-10T13:31:21.404Z,52.80
2023-04-10T13:33:49.442Z,54.19
2023-04-10T13:36:16.956Z,53.16
2023-04-10T13:38:44.433Z,54.75
2023-04-10T13:41:13.216Z,52.99
2023-04-10T13:43:40.774Z,54.23
2023-04-10T13:46:08.468Z,53.26
2023-04-10T13:48:41.097Z,52.42
2023-04-10T13:51:09.247Z,52.79
2023-04-10T13:53:36.853Z,52.89
2023-04-10T13:56:04.338Z,52.40
2023-04-10T13:58:34.336Z,52.98
2023-04-10T14:01:02.205Z,53.81
2023-04-10T14:03:29.813Z,52.28
2023-04-10T14:05:57.406Z,53.12
2023-04-10T14:08:24.821Z,54.20
2023-04-10T14:10:52.674Z,52.75
2023-04-10T14:13:20.119Z,52.58
2023-04-10T14:15:50.015Z,52.88
2023-04-10T14:18:18.400Z,52.57
2023-04-10T14:20:45.816Z,52.15
2023-04-10T14:23:18.312Z,52.67
2023-04-10T14:25:46.123Z,53.02
2023-04-10T14:28:17.677Z,53.01
2023-04-10T14:30:45.284Z,53.54
2023-04-10T14:33:14.148Z,52.60
2023-04-10T14:35:42.013Z,53.72
2023-04-10T14:38:09.443Z,53.66
2023-04-10T14:40:37.510Z,53.64
2023-04-10T14:43:04.968Z,53.26
2023-04-10T14:45:32.640Z,53.65
2023-04-10T14:48:00.237Z,53.80
2023-04-10T14:50:29.408Z,54.53
2023-04-10T14:52:56.862Z,53.78
2023-04-10T14:55:25.137Z,52.98
2023-04-10T14:57:52.618Z,52.31
2023-04-10T15:00:20.595Z,54.54
2023-04-10T15:02:48.302Z,54.08
2023-04-10T15:05:16.024Z,53.36
2023-04-10T15:07:44.725Z,54.57
2023-04-10T15:10:12.270Z,53.46
2023-04-10T15:12:39.781Z,53.45
2023-04-10T15:15:08.457Z,55.35
2023-04-10T15:17:35.934Z,54.58
2023-04-10T15:20:04.958Z,55.93
2023-04-10T15:22:32.417Z,55.94
2023-04-10T15:25:01.311Z,56.39
2023-04-10T15:27:28.906Z,55.67
2023-04-10T15:29:56.567Z,56.52
2023-04-10T15:32:23.987Z,57.04
2023-04-10T15:34:51.420Z,54.75
2023-04-10T15:37:18.847Z,55.48
2023-04-10T15:39:46.240Z,54.82
2023-04-10T15:42:15.910Z,53.37
2023-04-10T15:44:43.348Z,52.90
2023-04-10T15:47:10.791Z,53.42
2023-04-10T15:49:38.854Z,52.61
2023-04-10T15:52:06.899Z,52.59
2023-04-10T15:54:35.602Z,52.15
2023-04-10T15:57:03.799Z,52.18
2023-04-10T15:59:33.448Z,51.71
2023-04-10T16:02:01.060Z,51.65
2023-04-10T16:04:28.995Z,53.23
2023-04-10T16:06:56.917Z,54.11
2023-04-10T16:09:26.436Z,53.44
2023-04-10T16:11:54.866Z,53.09
2023-04-10T16:14:22.772Z,52.32
2023-04-10T16:16:51.882Z,53.62
2023-04-10T16:19:19.320Z,52.00
2023-04-10T16:21:46.744Z,52.56
2023-04-10T16:24:14.236Z,52.93
2023-04-10T16:26:41.641Z,52.52
2023-04-10T16:29:09.107Z,51.46
2023-04-10T16:31:36.554Z,51.70
2023-04-10T16:34:05.281Z,51.28
2023-04-10T16:36:32.685Z,51.73
2023-04-10T16:39:00.132Z,51.92
2023-04-10T16:41:27.573Z,52.59
2023-04-10T16:43:55.428Z,52.47
2023-04-10T16:46:22.916Z,51.94
2023-04-10T16:48:51.988Z,52.71
2023-04-10T16:51:20.776Z,51.75
2023-04-10T16:53:48.154Z,51.43
2023-04-10T16:56:15.566Z,51.72
2023-04-10T16:58:43.157Z,52.95
2023-04-10T17:01:17.784Z,54.02
2023-04-10T17:03:45.527Z,52.34
2023-04-10T17:06:12.953Z,52.69
2023-04-10T17:08:41.782Z,53.15
2023-04-10T17:11:09.526Z,52.39
2023-04-10T17:13:37.156Z,53.05
2023-04-10T17:16:04.937Z,52.62
2023-04-10T17:18:33.555Z,53.43
2023-04-10T17:21:01.039Z,52.41
2023-04-10T17:23:28.507Z,52.71
2023-04-10T17:25:57.280Z,53.30
2023-04-10T17:28:24.775Z,53.02
2023-04-10T17:30:52.187Z,54.60
2023-04-10T17:33:21.635Z,54.64
2023-04-10T17:35:50.558Z,53.72
2023-04-10T17:38:18.106Z,54.35
2023-04-10T17:40:45.933Z,55.05
2023-04-10T17:43:14.658Z,54.07
2023-04-10T17:45:42.327Z,54.40
2023-04-10T17:48:11.740Z,53.93
2023-04-10T17:50:39.302Z,55.21
2023-04-10T17:53:06.765Z,53.03
2023-04-10T17:55:38.844Z,54.64
2023-04-10T17:58:06.493Z,53.85
2023-04-10T18:00:35.652Z,53.54
2023-04-10T18:03:03.184Z,53.90
2023-04-10T18:05:31.190Z,54.74
2023-04-10T18:07:58.626Z,55.86
2023-04-10T18:10:26.060Z,55.92
2023-04-10T18:12:56.650Z,54.58
2023-04-10T18:15:24.051Z,54.51
2023-04-10T18:17:52.816Z,54.32
2023-04-10T18:20:20.897Z,54.08
2023-04-10T18:22:48.396Z,53.44
2023-04-10T18:25:15.973Z,53.88
2023-04-10T18:27:51.509Z,53.54
2023-04-10T18:30:19.602Z,54.04
2023-04-10T18:32:47.005Z,55.38
2023-04-10T18:35:16.137Z,53.72
2023-04-10T18:37:44.383Z,54.71
2023-04-10T18:40:16.208Z,54.72
2023-04-10T18:42:44.247Z,55.09
2023-04-10T18:45:13.329Z,54.24
2023-04-10T18:47:40.779Z,56.18
2023-04-10T18:50:10.267Z,54.07
2023-04-10T18:52:39.014Z,55.53
2023-04-10T18:55:07.201Z,55.07
2023-04-10T18:57:34.666Z,54.45
2023-04-10T19:00:04.439Z,54.15
2023-04-10T19:02:31.956Z,55.18
2023-04-10T19:04:59.666Z,55.36
2023-04-10T19:07:27.070Z,56.23
2023-04-10T19:09:56.064Z,54.98
2023-04-10T19:12:23.482Z,55.43
2023-04-10T19:14:50.898Z,54.58
2023-04-10T19:17:21.796Z,54.95
2023-04-10T19:19:49.404Z,55.76
2023-04-10T19:22:17.124Z,56.93
2023-04-10T19:24:44.572Z,56.11
2023-04-10T19:27:13.423Z,62.48
2023-04-10T19:29:40.850Z,65.44
2023-04-10T19:32:09.585Z,60.96
2023-04-10T19:34:37.025Z,64.82
2023-04-10T19:37:04.482Z,67.10
2023-04-10T19:39:31.923Z,59.46
2023-04-10T19:41:59.486Z,62.15
2023-04-10T19:44:28.390Z,61.81
2023-04-10T19:46:55.926Z,57.46
2023-04-10T19:49:23.517Z,62.83
2023-04-10T19:51:51.139Z,60.64
2023-04-10T19:54:18.607Z,62.74
2023-04-10T19:56:46.060Z,58.96
2023-04-10T19:59:13.520Z,61.72
2023-04-10T20:01:42.319Z,61.33
2023-04-10T20:04:09.936Z,60.13
2023-04-10T20:06:37.547Z,55.43
2023-04-10T20:09:05.126Z,51.85
2023-04-10T20:11:32.795Z,51.07
2023-04-10T20:14:00.364Z,53.37
2023-04-10T20:16:27.855Z,53.83
2023-04-10T20:18:56.905Z,53.58
2023-04-10T20:21:24.514Z,53.47
2023-04-10T20:23:51.984Z,53.29
2023-04-10T20:26:19.402Z,52.14
2023-04-10T20:28:46.927Z,53.02
2023-04-10T20:31:15.218Z,53.57
2023-04-10T20:33:42.732Z,53.02
2023-04-10T20:36:11.740Z,54.17
2023-04-10T20:38:39.462Z,52.41
2023-04-10T20:41:07.062Z,53.22
2023-04-10T20:43:34.506Z,54.06
2023-04-10T20:46:03.964Z,54.27
2023-04-10T20:48:31.446Z,53.78
2023-04-10T20:50:58.867Z,54.09
2023-04-10T20:53:28.970Z,52.98
2023-04-10T20:55:56.504Z,52.49
2023-04-10T20:58:24.128Z,52.66
2023-04-10T21:00:52.290Z,52.88
2023-04-10T21:03:20.040Z,52.63
2023-04-10T21:05:47.725Z,53.26
2023-04-10T21:08:15.400Z,53.50
2023-04-10T21:10:44.920Z,52.48
2023-04-10T21:13:13.569Z,53.51
2023-04-10T21:15:41.021Z,53.71
2023-04-10T21:18:08.452Z,52.52
2023-04-10T21:20:36.034Z,52.37
2023-04-10T21:23:03.638Z,53.20
2023-04-10T21:25:32.378Z,53.64
2023-04-10T21:28:01.495Z,53.57
2023-04-10T21:30:29.423Z,53.05
2023-04-10T21:32:57.029Z,52.96
2023-04-10T21:35:24.780Z,53.38
2023-04-10T21:37:56.505Z,53.89
2023-04-10T21:40:24.842Z,53.42
2023-04-10T21:42:53.371Z,55.22
2023-04-10T21:45:23.568Z,53.39
2023-04-10T21:47:51.074Z,53.85
2023-04-10T21:50:18.645Z,53.61
2023-04-10T21:52:46.125Z,52.96
2023-04-10T21:55:15.291Z,53.49
2023-04-10T21:57:42.748Z,53.36
2023-04-10T22:00:12.443Z,53.36
2023-04-10T22:02:41.358Z,53.11
2023-04-10T22:05:09.361Z,54.22
2023-04-10T22:07:36.811Z,53.81
2023-04-10T22:10:04.620Z,54.31
2023-04-10T22:12:32.094Z,54.44
2023-04-10T22:14:59.536Z,54.70
2023-04-10T22:17:27.146Z,54.17
2023-04-10T22:19:55.885Z,54.44
2023-04-10T22:22:23.342Z,54.76
2023-04-10T22:24:50.951Z,54.38
2023-04-10T22:27:18.399Z,54.86
2023-04-10T22:29:56.215Z,54.99
2023-04-10T22:32:30.126Z,55.47
2023-04-10T22:35:00.621Z,56.36
2023-04-10T22:37:28.262Z,55.29
2023-04-10T22:39:56.226Z,56.15
2023-04-10T22:42:24.082Z,55.65
2023-04-10T22:44:51.573Z,55.19
2023-04-10T22:47:19.007Z,54.48
2023-04-10T22:49:46.484Z,55.25
2023-04-10T22:52:16.245Z,54.95
2023-04-10T22:54:43.683Z,54.76
2023-04-10T22:57:11.133Z,54.51
2023-04-10T22:59:38.731Z,55.46
2023-04-10T23:02:06.316Z,55.35
2023-04-10T23:04:34.042Z,54.63
2023-04-10T23:07:01.556Z,54.72
2023-04-10T23:09:30.328Z,54.49
2023-04-10T23:11:57.783Z,54.97
2023-04-10T23:14:25.198Z,55.17
2023-04-10T23:16:52.619Z,54.52
2023-04-10T23:19:20.052Z,54.77
2023-04-10T23:21:47.549Z,56.13
2023-04-10T23:24:14.979Z,55.69
2023-04-10T23:26:43.772Z,55.57
2023-04-10T23:29:11.219Z,55.47
2023-04-10T23:31:38.705Z,56.17
2023-04-10T23:34:06.203Z,56.57
2023-04-10T23:36:33.620Z,57.10
2023-04-10T23:39:01.039Z,56.91
2023-04-10T23:41:28.470Z,57.37
2023-04-10T23:43:57.264Z,56.99
2023-04-10T23:46:24.830Z,56.20
2023-04-10T23:48:54.317Z,56.19
2023-04-10T23:51:21.940Z,56.80
2023-04-10T23:53:49.331Z,57.46
2023-04-10T23:56:16.804Z,56.69
2023-04-10T23:58:44.247Z,57.03
